createdAt,value
2023-01-23T00:02:09.647Z,10.05
2023-01-23T00:04:36.425Z,8.80
2023-01-23T00:07:03.637Z,8.15
2023-01-23T00:09:30.600Z,12.05
2023-01-23T00:11:57.799Z,11.80
2023-01-23T00:14:24.519Z,8.57
2023-01-23T00:16:51.249Z,10.18
2023-01-23T00:19:18.124Z,12.35
2023-01-23T00:21:44.859Z,10.95
2023-01-23T00:24:12.752Z,9.02
2023-01-23T00:26:39.593Z,8.55
2023-01-23T00:29:06.707Z,7.95
2023-01-23T00:31:35.898Z,6.18
2023-01-23T00:34:06.772Z,9.10
2023-01-23T00:36:36.532Z,8.15
2023-01-23T00:39:06.755Z,7.82
2023-01-23T00:41:33.786Z,9.52
2023-01-23T00:44:00.499Z,7.68
2023-01-23T00:46:27.273Z,8.32
2023-01-23T00:48:54.054Z,9.00
2023-01-23T00:51:20.884Z,11.15
2023-01-23T00:53:47.745Z,10.65
2023-01-23T00:56:14.463Z,8.25
2023-01-23T00:58:44.098Z,8.38
2023-01-23T01:01:11.839Z,9.68
2023-01-23T01:03:38.638Z,9.73
2023-01-23T01:06:05.914Z,8.27
2023-01-23T01:08:32.932Z,10.32
2023-01-23T01:10:59.793Z,8.07
2023-01-23T01:13:27.087Z,9.75
2023-01-23T01:15:54.502Z,9.23
2023-01-23T01:18:22.761Z,8.38
2023-01-23T01:20:49.965Z,8.52
2023-01-23T01:23:17.247Z,8.18
2023-01-23T01:25:44.001Z,7.97
2023-01-23T01:28:10.676Z,8.45
2023-01-23T01:30:37.885Z,7.97
2023-01-23T01:33:05.069Z,8.90
2023-01-23T01:35:32.317Z,8.65
2023-01-23T01:37:59.563Z,9.35
2023-01-23T01:40:34.326Z,9.48
2023-01-23T01:43:09.463Z,11.98
2023-01-23T01:46:15.153Z,10.75
2023-01-23T01:49:02.754Z,10.48
2023-01-23T01:51:39.133Z,10.23
2023-01-23T01:54:12.056Z,8.35
2023-01-23T01:56:45.754Z,8.23
2023-01-23T01:59:14.154Z,10.70
2023-01-23T02:01:46.473Z,9.00
2023-01-23T02:04:14.097Z,10.87
2023-01-23T02:06:40.928Z,12.13
2023-01-23T02:09:37.986Z,8.30
2023-01-23T02:12:05.315Z,9.88
2023-01-23T02:14:32.070Z,13.02
2023-01-23T02:17:01.245Z,10.10
2023-01-23T02:19:48.472Z,11.23
2023-01-23T02:22:54.082Z,8.85
2023-01-23T02:26:00.557Z,10.98
2023-01-23T02:28:42.171Z,9.88
2023-01-23T02:31:09.585Z,10.20
2023-01-23T02:33:36.211Z,8.40
2023-01-23T02:36:05.665Z,9.02
2023-01-23T02:38:40.201Z,8.77
2023-01-23T02:41:10.662Z,8.90
2023-01-23T02:43:38.423Z,7.55
2023-01-23T02:46:07.174Z,7.65
2023-01-23T02:48:34.061Z,11.05
2023-01-23T02:51:00.735Z,9.32
2023-01-23T02:53:27.832Z,8.63
2023-01-23T02:55:54.536Z,8.63
2023-01-23T02:58:39.744Z,8.73
2023-01-23T03:01:06.521Z,8.35
2023-01-23T03:03:33.273Z,8.45
2023-01-23T03:06:03.295Z,10.02
2023-01-23T03:08:36.226Z,8.45
2023-01-23T03:11:04.496Z,10.50
2023-01-23T03:13:31.581Z,9.55
2023-01-23T03:15:58.498Z,9.45
2023-01-23T03:18:27.717Z,11.93
2023-01-23T03:20:54.509Z,11.60
2023-01-23T03:23:21.275Z,11.65
2023-01-23T03:25:49.136Z,13.27
2023-01-23T03:28:34.197Z,13.15
2023-01-23T03:31:00.998Z,14.27
2023-01-23T03:33:27.679Z,15.02
2023-01-23T03:35:54.397Z,11.88
2023-01-23T03:38:21.099Z,13.13
2023-01-23T03:41:09.289Z,13.38
2023-01-23T03:43:35.977Z,13.38
2023-01-23T03:46:02.679Z,13.13
2023-01-23T03:48:29.420Z,12.10
2023-01-23T03:50:56.102Z,11.82
2023-01-23T03:53:23.453Z,13.40
2023-01-23T03:55:50.183Z,14.63
2023-01-23T03:58:16.906Z,13.50
2023-01-23T04:00:43.621Z,11.80
2023-01-23T04:03:10.396Z,12.82
2023-01-23T04:05:37.112Z,10.60
2023-01-23T04:08:03.994Z,13.38
2023-01-23T04:10:30.919Z,10.95
2023-01-23T04:12:57.640Z,10.82
2023-01-23T04:15:24.392Z,12.32
2023-01-23T04:17:51.113Z,13.70
2023-01-23T04:20:18.020Z,11.27
2023-01-23T04:22:44.915Z,11.00
2023-01-23T04:25:11.599Z,10.63
2023-01-23T04:27:38.267Z,12.02
2023-01-23T04:30:05.326Z,12.38
2023-01-23T04:32:31.988Z,12.07
2023-01-23T04:34:58.653Z,12.90
2023-01-23T04:37:25.358Z,12.93
2023-01-23T04:39:52.067Z,10.02
2023-01-23T04:42:18.740Z,12.00
2023-01-23T04:44:45.510Z,12.60
2023-01-23T04:47:12.221Z,10.77
2023-01-23T04:49:39.059Z,14.13
2023-01-23T04:52:05.832Z,9.88
2023-01-23T04:54:32.542Z,11.57
2023-01-23T04:56:59.556Z,12.68
2023-01-23T04:59:26.344Z,13.18
2023-01-23T05:01:53.022Z,11.10
2023-01-23T05:04:19.699Z,10.02
2023-01-23T05:06:46.390Z,10.52
2023-01-23T05:09:13.696Z,9.85
2023-01-23T05:11:40.403Z,11.43
2023-01-23T05:14:07.116Z,12.43
2023-01-23T05:16:33.818Z,11.45
2023-01-23T05:19:00.485Z,12.48
2023-01-23T05:21:27.232Z,12.55
2023-01-23T05:23:53.949Z,12.45
2023-01-23T05:26:20.875Z,12.20
2023-01-23T05:28:47.617Z,16.60
2023-01-23T05:31:14.477Z,14.10
2023-01-23T05:33:41.325Z,13.25
2023-01-23T05:36:08.449Z,13.02
2023-01-23T05:38:35.263Z,11.65
2023-01-23T05:41:02.435Z,12.40
2023-01-23T05:43:29.131Z,12.05
2023-01-23T05:45:55.901Z,10.45
2023-01-23T05:48:22.560Z,11.73
2023-01-23T05:50:49.245Z,12.25
2023-01-23T05:53:15.964Z,15.82
2023-01-23T05:55:42.696Z,13.65
2023-01-23T05:58:09.448Z,12.52
2023-01-23T06:00:36.825Z,14.73
2023-01-23T06:03:03.545Z,12.25
2023-01-23T06:05:30.345Z,12.93
2023-01-23T06:07:57.105Z,13.60
2023-01-23T06:10:24.211Z,15.15
2023-01-23T06:12:50.876Z,16.60
2023-01-23T06:15:17.592Z,13.55
2023-01-23T06:17:44.827Z,12.05
2023-01-23T06:20:12.628Z,13.07
2023-01-23T06:22:39.347Z,14.52
2023-01-23T06:25:06.585Z,12.48
2023-01-23T06:27:33.365Z,15.13
2023-01-23T06:30:00.027Z,13.82
2023-01-23T06:32:26.724Z,13.27
2023-01-23T06:34:53.527Z,11.95
2023-01-23T06:37:20.207Z,13.00
2023-01-23T06:39:46.930Z,12.10
2023-01-23T06:42:13.656Z,12.50
2023-01-23T06:44:40.348Z,11.40
2023-01-23T06:47:07.080Z,10.77
2023-01-23T06:49:33.929Z,11.13
2023-01-23T06:52:00.629Z,12.40
2023-01-23T06:54:27.355Z,13.73
2023-01-23T06:56:54.124Z,11.95
2023-01-23T06:59:20.797Z,13.65
2023-01-23T07:01:47.519Z,11.75
2023-01-23T07:04:14.208Z,10.27
2023-01-23T07:06:40.872Z,10.85
2023-01-23T07:09:07.651Z,10.45
2023-01-23T07:11:36.107Z,13.18
2023-01-23T07:14:02.943Z,12.63
2023-01-23T07:16:29.728Z,12.20
2023-01-23T07:18:59.162Z,9.63
2023-01-23T07:21:25.941Z,11.60
2023-01-23T07:23:52.667Z,11.63
2023-01-23T07:26:19.574Z,10.77
2023-01-23T07:28:46.301Z,14.02
2023-01-23T07:31:13.215Z,11.25
2023-01-23T07:33:39.981Z,9.02
2023-01-23T07:36:07.712Z,10.90
2023-01-23T07:38:34.662Z,11.85
2023-01-23T07:41:01.393Z,9.57
2023-01-23T07:43:28.121Z,8.85
2023-01-23T07:45:54.857Z,8.35
2023-01-23T07:48:21.586Z,10.15
2023-01-23T07:50:48.327Z,9.50
2023-01-23T07:53:15.027Z,8.98
2023-01-23T07:55:41.731Z,10.38
2023-01-23T07:58:08.454Z,9.25
2023-01-23T08:00:35.283Z,8.05
2023-01-23T08:03:02.117Z,9.77
2023-01-23T08:05:28.840Z,11.18
2023-01-23T08:08:11.435Z,9.52
2023-01-23T08:10:39.202Z,10.05
2023-01-23T08:13:05.956Z,10.90
2023-01-23T08:15:32.668Z,9.00
2023-01-23T08:17:59.398Z,9.15
2023-01-23T08:20:26.123Z,11.18
2023-01-23T08:22:52.864Z,11.32
2023-01-23T08:25:19.699Z,9.27
2023-01-23T08:27:46.407Z,10.43
2023-01-23T08:30:13.556Z,10.30
2023-01-23T08:32:40.242Z,9.98
2023-01-23T08:35:07.454Z,11.57
2023-01-23T08:37:34.553Z,10.15
2023-01-23T08:40:01.414Z,10.43
2023-01-23T08:42:28.239Z,9.57
2023-01-23T08:44:54.991Z,10.45
2023-01-23T08:47:21.868Z,10.20
2023-01-23T08:49:48.558Z,9.93
2023-01-23T08:52:15.410Z,11.90
2023-01-23T08:54:42.135Z,9.68
2023-01-23T08:57:08.908Z,9.80
2023-01-23T08:59:35.583Z,9.73
2023-01-23T09:02:02.729Z,11.27
2023-01-23T09:04:29.509Z,10.88
2023-01-23T09:06:56.216Z,10.60
2023-01-23T09:09:24.240Z,10.60
2023-01-23T09:11:51.063Z,10.43
2023-01-23T09:14:18.005Z,11.10
2023-01-23T09:16:44.992Z,9.52
2023-01-23T09:19:12.875Z,8.20
2023-01-23T09:21:40.021Z,10.35
2023-01-23T09:24:06.953Z,11.63
2023-01-23T09:26:33.669Z,9.70
2023-01-23T09:29:00.379Z,10.10
2023-01-23T09:31:27.185Z,10.55
2023-01-23T09:33:54.109Z,8.80
2023-01-23T09:36:33.710Z,11.27
2023-01-23T09:39:07.511Z,11.10
2023-01-23T09:41:34.396Z,10.40
2023-01-23T09:44:11.515Z,11.52
2023-01-23T09:46:42.162Z,11.70
2023-01-23T09:49:19.717Z,9.35
2023-01-23T09:52:01.143Z,10.50
2023-01-23T09:55:04.252Z,10.15
2023-01-23T09:57:41.676Z,9.00
2023-01-23T10:00:30.896Z,10.75
2023-01-23T10:03:00.216Z,10.75
2023-01-23T10:05:44.030Z,9.90
2023-01-23T10:08:18.208Z,8.82
2023-01-23T10:10:50.546Z,9.82
2023-01-23T10:13:17.288Z,8.77
2023-01-23T10:16:12.763Z,8.93
2023-01-23T10:18:54.561Z,9.05
2023-01-23T10:21:26.541Z,9.57
2023-01-23T10:24:38.005Z,9.25
2023-01-23T10:27:16.022Z,9.15
2023-01-23T10:29:48.729Z,8.10
2023-01-23T10:32:25.650Z,7.72
2023-01-23T10:35:02.216Z,8.90
2023-01-23T10:37:43.057Z,8.88
2023-01-23T10:40:15.198Z,9.05
2023-01-23T10:42:41.959Z,8.18
2023-01-23T10:45:18.176Z,8.98
2023-01-23T10:47:50.115Z,8.70
2023-01-23T10:50:36.373Z,8.18
2023-01-23T10:53:08.581Z,8.18
2023-01-23T10:55:35.348Z,7.25
2023-01-23T10:58:03.276Z,8.43
2023-01-23T11:00:45.247Z,6.82
2023-01-23T11:03:40.866Z,6.82
2023-01-23T11:06:10.024Z,7.20
2023-01-23T11:08:49.947Z,6.35
2023-01-23T11:11:16.668Z,7.82
2023-01-23T11:13:45.995Z,7.15
2023-01-23T11:16:19.488Z,7.00
2023-01-23T11:19:02.945Z,8.25
2023-01-23T11:24:38.140Z,6.43
2023-01-23T11:27:16.034Z,6.10
2023-01-23T11:29:48.723Z,5.90
2023-01-23T11:32:17.489Z,6.40
2023-01-23T11:34:50.867Z,8.27
2023-01-23T11:37:35.104Z,6.22
2023-01-23T11:40:28.225Z,7.32
2023-01-23T11:42:55.742Z,6.45
2023-01-23T11:49:10.097Z,7.07
2023-01-23T11:51:42.149Z,6.78
2023-01-23T11:54:17.360Z,5.93
2023-01-23T11:56:50.285Z,6.95
2023-01-23T11:59:19.970Z,6.00
2023-01-23T12:02:34.488Z,5.00
2023-01-23T12:05:20.475Z,6.05
2023-01-23T12:08:23.467Z,5.82
2023-01-23T12:11:16.781Z,5.63
2023-01-23T12:13:46.421Z,5.13
2023-01-23T12:16:22.386Z,5.63
2023-01-23T12:19:11.771Z,5.53
2023-01-23T12:21:41.408Z,4.65
2023-01-23T12:24:40.041Z,5.07
2023-01-23T12:27:19.086Z,4.22
2023-01-23T12:30:05.559Z,4.07
2023-01-23T12:32:50.585Z,3.20
2023-01-23T12:35:41.699Z,3.08
2023-01-23T12:38:30.675Z,2.78
2023-01-23T12:41:23.657Z,2.70
2023-01-23T12:44:01.930Z,2.85
2023-01-23T12:46:51.680Z,2.47
2023-01-23T12:49:31.972Z,2.13
2023-01-23T12:52:18.948Z,2.10
2023-01-23T12:54:57.070Z,2.33
2023-01-23T12:57:52.526Z,2.17
2023-01-23T13:00:48.512Z,2.30
2023-01-23T13:03:45.714Z,2.80
2023-01-23T13:06:38.062Z,2.10
2023-01-23T13:09:18.918Z,1.90
2023-01-23T13:11:58.834Z,2.53
2023-01-23T13:15:03.438Z,2.20
2023-01-23T13:17:37.532Z,2.10
2023-01-23T13:20:41.828Z,1.95
2023-01-23T13:23:30.723Z,2.17
2023-01-23T13:26:15.874Z,1.90
2023-01-23T13:28:45.899Z,2.30
2023-01-23T13:31:27.536Z,2.00
2023-01-23T13:34:06.763Z,2.75
2023-01-23T13:36:41.688Z,2.47
2023-01-23T13:39:17.601Z,3.65
2023-01-23T13:41:46.339Z,3.00
2023-01-23T13:44:22.992Z,2.45
2023-01-23T14:24:57.053Z,3.25
2023-01-23T14:27:52.002Z,2.85
2023-01-23T14:30:28.338Z,3.33
2023-01-23T14:32:55.502Z,3.05
2023-01-23T14:35:32.154Z,3.10
2023-01-23T14:38:08.419Z,3.17
2023-01-23T14:40:49.484Z,3.70
2023-01-23T14:43:27.809Z,3.00
2023-01-23T14:46:00.166Z,8.10
2023-01-23T14:48:28.115Z,6.87
2023-01-23T14:51:29.154Z,6.85
2023-01-23T14:54:01.941Z,4.75
2023-01-23T14:56:35.682Z,4.72
2023-01-23T14:59:06.047Z,4.07
2023-01-23T15:01:35.640Z,4.13
2023-01-23T15:04:19.513Z,4.13
2023-01-23T15:06:52.612Z,3.78
2023-01-23T15:09:45.719Z,3.85
2023-01-23T15:12:17.406Z,3.05
2023-01-23T15:14:45.174Z,3.53
2023-01-23T15:17:19.754Z,3.65
2023-01-23T15:19:59.423Z,3.60
2023-01-23T15:22:28.858Z,2.75
2023-01-23T15:24:56.536Z,2.72
2023-01-23T15:27:33.432Z,2.50
2023-01-23T15:30:29.009Z,2.63
2023-01-23T15:32:56.922Z,2.80
2023-01-23T15:35:24.830Z,2.65
2023-01-23T15:37:56.076Z,2.55
2023-01-23T15:40:27.796Z,2.58
2023-01-23T15:43:13.124Z,2.58
2023-01-23T15:45:39.890Z,2.65
2023-01-23T15:48:06.880Z,3.78
2023-01-23T15:50:33.643Z,2.85
2023-01-23T15:53:00.494Z,2.58
2023-01-23T15:55:28.712Z,2.90
2023-01-23T15:57:56.159Z,3.05
2023-01-23T16:00:25.391Z,3.20
2023-01-23T16:02:56.836Z,3.45
2023-01-23T16:05:37.446Z,3.53
2023-01-23T16:08:06.477Z,2.75
2023-01-23T16:10:39.845Z,2.63
2023-01-23T16:13:07.970Z,2.40
2023-01-23T16:15:35.868Z,2.35
2023-01-23T16:18:06.460Z,2.60
2023-01-23T16:20:39.347Z,2.78
2023-01-23T16:23:15.564Z,2.42
2023-01-23T16:25:45.788Z,2.72
2023-01-23T16:28:13.152Z,3.88
2023-01-23T16:30:39.842Z,6.78
2023-01-23T16:33:06.813Z,4.38
2023-01-23T16:35:33.901Z,4.00
2023-01-23T16:38:00.704Z,3.70
2023-01-23T16:40:30.612Z,3.50
2023-01-23T16:42:57.479Z,3.50
2023-01-23T16:45:29.359Z,4.07
2023-01-23T16:47:56.445Z,2.90
2023-01-23T16:50:31.912Z,3.22
2023-01-23T16:53:07.984Z,3.47
2023-01-23T16:55:40.092Z,4.82
2023-01-23T16:58:13.881Z,6.35
2023-01-23T17:00:42.508Z,5.85
2023-01-23T17:03:10.440Z,4.95
2023-01-23T17:05:37.337Z,3.58
2023-01-23T17:08:17.795Z,3.58
2023-01-23T17:10:47.038Z,2.75
2023-01-23T17:13:16.143Z,2.92
2023-01-23T17:15:43.046Z,3.22
2023-01-23T17:18:27.111Z,3.28
2023-01-23T17:20:55.218Z,2.88
2023-01-23T17:23:23.554Z,2.67
2023-01-23T17:26:00.262Z,2.70
2023-01-23T17:28:28.213Z,2.67
2023-01-23T17:30:55.706Z,2.20
2023-01-23T17:33:31.760Z,2.58
2023-01-23T17:36:00.064Z,2.50
2023-01-23T17:38:34.537Z,2.30
2023-01-23T17:41:01.992Z,2.88
2023-01-23T17:43:29.479Z,25.08
2023-01-23T17:45:56.594Z,6.00
2023-01-23T17:48:38.700Z,9.18
2023-01-23T17:51:12.675Z,5.18
2023-01-23T17:53:39.975Z,5.18
2023-01-23T17:56:07.844Z,5.22
2023-01-23T17:58:34.627Z,3.72
2023-01-23T18:01:01.579Z,3.58
2023-01-23T18:03:28.325Z,4.28
2023-01-23T18:05:55.019Z,4.43
2023-01-23T18:08:22.893Z,6.57
2023-01-23T18:10:53.356Z,4.80
2023-01-23T18:13:29.160Z,5.50
2023-01-23T18:15:58.680Z,4.78
2023-01-23T18:18:34.259Z,5.00
2023-01-23T18:21:02.922Z,4.00
2023-01-23T18:23:32.515Z,4.45
2023-01-23T18:26:32.293Z,4.18
2023-01-23T18:29:17.644Z,4.30
2023-01-23T18:32:00.626Z,3.13
2023-01-23T18:35:03.065Z,3.10
2023-01-23T18:37:55.594Z,2.97
2023-01-23T18:40:47.039Z,3.38
2023-01-23T18:43:31.894Z,2.58
2023-01-23T18:45:58.857Z,2.72
2023-01-23T18:48:26.312Z,2.50
2023-01-23T18:51:16.836Z,2.78
2023-01-23T18:53:55.828Z,2.35
2023-01-23T18:56:42.326Z,2.67
2023-01-23T18:59:39.936Z,2.80
2023-01-23T19:02:21.841Z,3.00
2023-01-23T19:05:03.745Z,2.60
2023-01-23T19:07:30.583Z,2.90
2023-01-23T19:09:57.647Z,2.17
2023-01-23T19:12:44.618Z,2.47
2023-01-23T19:15:25.051Z,2.72
2023-01-23T19:18:09.447Z,2.72
2023-01-23T19:20:45.390Z,2.50
2023-01-23T19:23:38.886Z,2.92
2023-01-23T19:26:05.963Z,2.72
2023-01-23T19:28:32.908Z,2.78
2023-01-23T19:31:00.308Z,3.30
2023-01-23T19:33:27.081Z,2.83
2023-01-23T19:35:56.776Z,2.85
2023-01-23T19:38:23.696Z,2.75
2023-01-23T19:40:50.681Z,2.45
2023-01-23T19:43:17.967Z,2.47
2023-01-23T19:45:45.644Z,3.10
2023-01-23T19:48:13.022Z,2.55
2023-01-23T19:50:40.385Z,2.80
2023-01-23T19:53:07.478Z,2.17
2023-01-23T19:55:36.480Z,2.75
2023-01-23T19:58:03.302Z,2.72
2023-01-23T20:00:33.578Z,2.17
2023-01-23T20:03:00.227Z,1.98
2023-01-23T20:05:27.453Z,1.90
2023-01-23T20:07:54.205Z,1.90
2023-01-23T20:10:21.504Z,1.75
2023-01-23T20:12:55.500Z,2.33
2023-01-23T20:15:25.678Z,2.50
2023-01-23T20:17:53.290Z,2.78
2023-01-23T20:20:21.387Z,6.55
2023-01-23T20:22:48.695Z,3.35
2023-01-23T20:25:16.924Z,2.90
2023-01-23T20:27:43.814Z,2.72
2023-01-23T20:30:17.067Z,2.72
2023-01-23T20:32:43.971Z,2.35
2023-01-23T20:35:11.654Z,2.92
2023-01-23T20:37:38.432Z,2.30
2023-01-23T20:40:05.675Z,2.35
2023-01-23T20:42:33.879Z,2.35
2023-01-23T20:45:00.528Z,2.67
2023-01-23T20:47:27.229Z,2.75
2023-01-23T20:49:53.924Z,2.40
2023-01-23T20:52:38.933Z,3.25
2023-01-23T20:55:05.950Z,3.03
2023-01-23T20:57:51.724Z,4.03
2023-01-23T21:00:18.854Z,4.28
2023-01-23T21:02:45.641Z,4.10
2023-01-23T21:05:12.438Z,4.32
2023-01-23T21:07:39.080Z,3.33
2023-01-23T21:10:06.539Z,4.28
2023-01-23T21:12:33.442Z,3.58
2023-01-23T21:15:00.981Z,2.90
2023-01-23T21:17:27.722Z,2.97
2023-01-23T21:19:54.414Z,3.03
2023-01-23T21:22:21.122Z,3.95
2023-01-23T21:24:47.765Z,2.83
2023-01-23T21:27:14.483Z,2.30
2023-01-23T21:29:41.340Z,2.42
2023-01-23T21:32:08.212Z,3.20
2023-01-23T21:34:35.024Z,2.53
2023-01-23T21:37:01.816Z,2.08
2023-01-23T21:39:28.520Z,2.30
2023-01-23T21:41:55.152Z,2.45
2023-01-23T21:44:21.804Z,2.10
2023-01-23T21:46:49.287Z,1.70
2023-01-23T21:49:16.142Z,2.47
2023-01-23T21:51:43.149Z,2.42
2023-01-23T21:54:09.933Z,2.65
2023-01-23T21:56:36.715Z,2.42
2023-01-23T21:59:03.715Z,2.92
2023-01-23T22:01:36.251Z,2.40
2023-01-23T22:04:18.464Z,2.83
2023-01-23T22:06:46.435Z,2.40
2023-01-23T22:09:18.287Z,2.85
2023-01-23T22:11:46.428Z,2.20
2023-01-23T22:14:13.622Z,2.55
2023-01-23T22:16:49.842Z,2.63
2023-01-23T22:19:21.056Z,2.30
2023-01-23T22:21:49.530Z,3.17
2023-01-23T22:24:16.232Z,2.70
2023-01-23T22:26:43.698Z,3.03
2023-01-23T22:29:15.205Z,2.50
2023-01-23T22:31:42.847Z,3.42
2023-01-23T22:34:09.888Z,2.88
2023-01-23T22:36:36.901Z,2.80
2023-01-23T22:39:04.158Z,3.03
2023-01-23T22:41:31.084Z,3.03
2023-01-23T22:43:59.477Z,3.28
2023-01-23T22:46:26.494Z,2.90
2023-01-23T22:48:53.182Z,3.10
2023-01-23T22:51:24.365Z,2.85
2023-01-23T22:53:52.189Z,3.25
2023-01-23T22:56:19.016Z,3.25
2023-01-23T22:58:47.163Z,2.88
2023-01-23T23:01:14.248Z,2.70
2023-01-23T23:03:41.506Z,2.55
2023-01-23T23:06:10.592Z,2.40
2023-01-23T23:08:37.328Z,2.80
2023-01-23T23:11:06.857Z,2.67
2023-01-23T23:13:36.794Z,3.00
2023-01-23T23:16:08.996Z,2.50
2023-01-23T23:18:38.265Z,1.98
2023-01-23T23:21:09.917Z,2.20
2023-01-23T23:23:36.994Z,2.10
2023-01-23T23:26:05.759Z,2.05
2023-01-23T23:28:34.184Z,2.00
2023-01-23T23:31:01.328Z,1.70
2023-01-23T23:33:28.365Z,1.92
2023-01-23T23:35:55.280Z,1.60
2023-01-23T23:38:22.156Z,1.90
2023-01-23T23:41:06.485Z,2.00
2023-01-23T23:43:33.827Z,1.58
2023-01-23T23:46:02.885Z,1.50
2023-01-23T23:48:30.337Z,1.60
2023-01-23T23:51:00.157Z,2.05
2023-01-23T23:53:27.154Z,1.60
2023-01-23T23:55:54.205Z,1.77
2023-01-23T23:58:20.960Z,1.65
